Mamolino2051 — 9HB2989 — position and weather

sailwx.info

Track history (hours):
 
Tides and Currents Weather Stations Pressure Air Temp Water Temp Dewpoint Dewpoint Depression Visibility Wind Speed Wind Dir Waves Ship Positions

Mamolino2051

Last reported at 2018-May-15 14:19 UTC. Time now 2018-Jun-22 15:05 UTC.
Position S 05°23' E 011°27'.
Warning: this ship's position is 38 days out of date.

Length 20 m; draft 1 m.

Type: Ship. MMSI: 229180000.

Date/timePositionNaut miles runAvg speedWind from/ knotsBaromVisibWave heightAir tempDewpointWater temp
2018-May-15 14:19S 05°23' E 011°27'0 0.3
2018-May-15 14:00S 05°23' E 011°27'0 0.2
2018-May-15 13:30S 05°23' E 011°27'1 2.9
2018-May-15 12:59S 05°22' E 011°28'2 3.5
2018-May-15 12:22S 05°22' E 011°30'0 0.0
2018-May-15 11:46S 05°22' E 011°30'0 0.0
2018-May-15 11:30S 05°22' E 011°30'4 6.8
2018-May-15 10:59S 05°23' E 011°27'714.4
2018-May-15 10:30S 05°18' E 011°32'3 5.7
2018-May-15 10:00S 05°20' E 011°30'4 8.1
2018-May-15 09:28S 05°23' E 011°27'0 0.1
2018-May-15 09:00S 05°23' E 011°27'4 5.0
2018-May-15 08:16S 05°22' E 011°30'0 0.0
2018-May-15 08:00S 05°22' E 011°30'0 0.0
2018-May-15 07:18S 05°22' E 011°30'1 2.3
2018-May-15 06:55S 05°21' E 011°30'613.5
2018-May-15 06:30S 05°17' E 011°34'1019.5
2018-May-15 05:59S 05°17' E 011°24'612.3
2018-May-15 05:29S 05°23' E 011°27'713.4
2018-May-15 04:59S 05°17' E 011°23'4 8.4
2018-May-15 04:30S 05°19' E 011°26'5 1.0
2018-May-15 00:07S 05°22' E 011°30'0 0.0
2018-May-14 23:59S 05°22' E 011°30'0 0.0
2018-May-14 23:30S 05°22' E 011°30'0 0.0
2018-May-14 21:48S 05°22' E 011°30'0 0.0
2018-May-14 21:28S 05°22' E 011°30'0 0.0
2018-May-14 20:13S 05°22' E 011°30'0 0.0
2018-May-14 20:00S 05°22' E 011°30'0 0.0
2018-May-14 19:10S 05°22' E 011°30'1 4.8
2018-May-14 18:59S 05°21' E 011°29'816.3
2018-May-14 18:30S 05°17' E 011°23'918.5
2018-May-14 18:00S 05°17' E 011°32'4 8.0
2018-May-14 17:29S 05°17' E 011°28'510.7
2018-May-14 17:00S 05°17' E 011°23'713.0
2018-May-14 16:29S 05°23' E 011°27'0 0.2
2018-May-14 15:59S 05°23' E 011°27'0 0.2
2018-May-14 15:30S 05°23' E 011°27'0 0.5
2018-May-14 14:59S 05°23' E 011°27'0 0.6
2018-May-14 14:29S 05°23' E 011°27'0 0.1
2018-May-14 13:58S 05°23' E 011°27'5 9.3
2018-May-14 13:29S 05°21' E 011°31'3 5.7
2018-May-14 12:58S 05°18' E 011°32'713.9
2018-May-14 12:28S 05°23' E 011°27'3 5.9
2018-May-14 11:58S 05°23' E 011°24'1 2.0
2018-May-14 11:30S 05°23' E 011°25'1 2.0
2018-May-14 11:00S 05°23' E 011°26'1 1.9
2018-May-14 10:30S 05°23' E 011°26'2 3.0
2018-May-14 09:59S 05°23' E 011°25'1 1.9
2018-May-14 09:30S 05°23' E 011°26'1 1.4
2018-May-14 09:00S 05°23' E 011°27'713.1
2018-May-14 08:29S 05°17' E 011°23'1020.4
2018-May-14 07:59S 05°17' E 011°33'0 0.6
2018-May-14 07:30S 05°17' E 011°33'1 1.3
2018-May-14 06:59S 05°16' E 011°34'917.9
2018-May-14 06:30S 05°22' E 011°27'713.2
2018-May-14 06:00S 05°17' E 011°23'712.9
2018-May-14 05:29S 05°23' E 011°27'613.4
2018-May-14 05:00S 05°17' E 011°23'0 0.6
2018-May-14 04:30S 05°17' E 011°23'9 6.2
2018-May-14 03:07S 05°22' E 011°30'0 0.0
2018-May-14 02:51S 05°22' E 011°30'0 0.0
2018-May-14 02:30S 05°22' E 011°30'0 0.0
2018-May-14 02:00S 05°22' E 011°30'0 0.0
2018-May-14 01:30S 05°22' E 011°30'0 0.0
2018-May-14 01:00S 05°22' E 011°30'0 0.0
2018-May-14 00:30S 05°22' E 011°30'0 0.0
2018-May-13 23:59S 05°22' E 011°30'0 0.0
2018-May-13 23:30S 05°22' E 011°30'0 0.0
2018-May-13 23:00S 05°22' E 011°30'0 0.0
2018-May-13 22:30S 05°22' E 011°30'0 0.0
2018-May-13 21:59S 05°22' E 011°30'0 0.0
2018-May-13 21:30S 05°22' E 011°30'0 0.0
2018-May-13 20:59S 05°22' E 011°30'0 0.0
2018-May-13 20:29S 05°22' E 011°30'0 0.0
2018-May-13 19:58S 05°22' E 011°30'0 0.0
2018-May-13 19:29S 05°22' E 011°30'4 7.4
2018-May-13 19:00S 05°22' E 011°27'5 9.4
2018-May-13 18:28S 05°17' E 011°26'814.2
2018-May-13 17:53S 05°17' E 011°34'821.2
2018-May-13 17:30S 05°17' E 011°26'2 4.9
2018-May-13 17:00S 05°18' E 011°23'6 9.6
2018-May-13 16:22S 05°23' E 011°27'0 0.5
2018-May-13 16:00S 05°23' E 011°26'0 0.4
2018-May-13 15:30S 05°23' E 011°27'4 7.7
2018-May-13 15:00S 05°22' E 011°30'0 0.0
2018-May-13 14:30S 05°22' E 011°30'0 0.0
2018-May-13 13:58S 05°22' E 011°30'0 0.0
2018-May-13 13:30S 05°22' E 011°30'0 0.0
2018-May-13 13:00S 05°22' E 011°30'0 0.0
2018-May-13 12:28S 05°22' E 011°30'0 0.0
2018-May-13 11:58S 05°22' E 011°30'4 8.2
2018-May-13 11:29S 05°23' E 011°27'4 8.0
2018-May-13 11:00S 05°19' E 011°25'3 5.4
2018-May-13 10:30S 05°17' E 011°23'713.4
2018-May-13 09:58S 05°17' E 011°30'4 8.2
2018-May-13 09:30S 05°16' E 011°34'5 9.2
2018-May-13 09:00S 05°17' E 011°29'613.0
2018-May-13 08:30S 05°17' E 011°23'0 0.5
2018-May-13 08:00S 05°17' E 011°23'1 1.2
2018-May-13 07:29S 05°17' E 011°23'0 0.5
2018-May-13 07:00S 05°17' E 011°23'1 1.9
2018-May-13 06:30S 05°17' E 011°23'1 1.6
2018-May-13 06:00S 05°17' E 011°23'0 0.7
2018-May-13 05:30S 05°17' E 011°23'0 0.5
2018-May-13 04:59S 05°17' E 011°23'4 6.7
2018-May-13 04:28S 05°19' E 011°26'511.1
2018-May-13 04:00S 05°22' E 011°30'0 0.0
2018-May-13 03:30S 05°22' E 011°30'0 0.0
2018-May-13 02:59S 05°22' E 011°30'0 0.0
2018-May-13 02:29S 05°22' E 011°30'0 0.0
2018-May-13 02:00S 05°22' E 011°30'0 0.0
2018-May-13 01:29S 05°22' E 011°30'0 0.1
2018-May-13 01:00S 05°22' E 011°30'0 0.0
2018-May-13 00:28S 05°22' E 011°30'0 0.0
2018-May-13 00:00S 05°22' E 011°30'0 0.0
2018-May-12 23:30S 05°22' E 011°30'0 0.0
2018-May-12 23:00S 05°22' E 011°30'0 0.0
2018-May-12 22:30S 05°22' E 011°30'0 0.0
2018-May-12 22:00S 05°22' E 011°30'0 0.0
2018-May-12 21:30S 05°22' E 011°30'0 0.0
2018-May-12 20:59S 05°22' E 011°30'0 0.0
2018-May-12 20:30S 05°22' E 011°30'0 0.0
2018-May-12 20:00S 05°22' E 011°30'0 0.0
2018-May-12 19:29S 05°22' E 011°30'1 1.3
2018-May-12 19:00S 05°21' E 011°30'815.4
2018-May-12 18:29S 05°17' E 011°23'919.8
2018-May-12 18:01S 05°17' E 011°33'5 9.0
2018-May-12 17:30S 05°16' E 011°28'5 9.8
2018-May-12 16:59S 05°17' E 011°23'713.7
2018-May-12 16:30S 05°23' E 011°27'4 8.1
2018-May-12 16:00S 05°19' E 011°24'4 7.6
2018-May-12 15:29S 05°23' E 011°27'0 0.1
2018-May-12 14:59S 05°23' E 011°27'1 1.4
2018-May-12 14:30S 05°22' E 011°26'1 1.4
2018-May-12 14:00S 05°22' E 011°27'4 6.9
2018-May-12 13:29S 05°22' E 011°30'0 0.0
2018-May-12 13:00S 05°22' E 011°30'0 0.0
2018-May-12 12:30S 05°22' E 011°30'0 0.0
2018-May-12 12:00S 05°22' E 011°30'0 0.0
2018-May-12 11:30S 05°22' E 011°30'0 0.0
2018-May-12 11:00S 05°22' E 011°30'0 0.0
2018-May-12 10:30S 05°22' E 011°30'0 0.0
2018-May-12 10:01S 05°22' E 011°30'4 7.6
2018-May-12 09:28S 05°22' E 011°26'1 1.1
2018-May-12 09:00S 05°23' E 011°26'0 0.2
2018-May-12 08:16S 05°23' E 011°26'0 1.6
2018-May-12 08:00S 05°22' E 011°26'0 0.9
2018-May-12 07:30S 05°23' E 011°26'4 7.9
2018-May-12 06:59S 05°20' E 011°30'5 9.8
2018-May-12 06:28S 05°17' E 011°33'920.2
2018-May-12 06:00S 05°17' E 011°24'612.2
2018-May-12 05:29S 05°23' E 011°27'713.2
2018-May-12 04:59S 05°17' E 011°23'2 4.4
2018-May-12 04:30S 05°18' E 011°25'612.5
2018-May-12 04:00S 05°22' E 011°30'0 0.0
2018-May-12 03:29S 05°22' E 011°30'0 0.0
2018-May-12 03:00S 05°22' E 011°30'0 0.0
2018-May-12 02:30S 05°22' E 011°30'0 0.0
2018-May-12 02:00S 05°22' E 011°30'0 0.0
2018-May-12 01:30S 05°22' E 011°30'0 0.0
2018-May-12 00:59S 05°22' E 011°30'0 0.0
2018-May-12 00:29S 05°22' E 011°30'0 0.0
2018-May-12 00:00S 05°22' E 011°30'0 0.0
2018-May-11 23:29S 05°22' E 011°30'0 0.0
2018-May-11 23:00S 05°22' E 011°30'0 0.0
2018-May-11 22:30S 05°22' E 011°30'0 0.0
2018-May-11 22:00S 05°22' E 011°30'0 0.0
2018-May-11 21:06S 05°22' E 011°30'0 0.0
2018-May-11 20:51S 05°22' E 011°30'0 0.0
2018-May-11 20:30S 05°22' E 011°30'0 0.0
2018-May-11 19:37S 05°22' E 011°30'0 0.1
2018-May-11 19:24S 05°22' E 011°30'4 9.4
2018-May-11 18:57S 05°23' E 011°27'716.0
2018-May-11 18:30S 05°17' E 011°23'917.1
2018-May-11 17:57S 05°16' E 011°33'2 4.1
2018-May-11 17:30S 05°16' E 011°31'815.5
2018-May-11 17:00S 05°17' E 011°23'713.3
2018-May-11 16:30S 05°23' E 011°27'4 7.4
2018-May-11 16:00S 05°20' E 011°24'4 7.6
2018-May-11 15:30S 05°23' E 011°27'0 0.2
2018-May-11 15:00S 05°23' E 011°27'0 0.2
2018-May-11 14:30S 05°23' E 011°27'0 0.0
2018-May-11 14:00S 05°23' E 011°27'1 1.0
2018-May-11 13:29S 05°22' E 011°27'918.0
2018-May-11 12:58S 05°16' E 011°34'3 6.9
2018-May-11 12:30S 05°18' E 011°31'714.3
2018-May-11 12:00S 05°21' E 011°25'1 2.1
2018-May-11 11:30S 05°22' E 011°25'1 1.2
2018-May-11 11:00S 05°21' E 011°25'1 1.8
2018-May-11 10:30S 05°22' E 011°26'1 1.5
2018-May-11 10:00S 05°23' E 011°26'2 2.8
2018-May-11 09:28S 05°22' E 011°25'0 0.5
2018-May-11 08:58S 05°22' E 011°25'1 1.4
2018-May-11 08:28S 05°22' E 011°26'1 1.4
2018-May-11 08:00S 05°23' E 011°26'0 0.5
2018-May-11 07:30S 05°23' E 011°26'813.7
2018-May-11 06:56S 05°17' E 011°32'510.5
2018-May-11 06:28S 05°20' E 011°29'511.8
2018-May-11 06:00S 05°18' E 011°24'6 9.5
2018-May-11 05:25S 05°23' E 011°27'715.8
2018-May-11 05:00S 05°17' E 011°23'0 1.0
2018-May-11 04:30S 05°18' E 011°23'713.1
2018-May-11 04:00S 05°23' E 011°26'0 0.0
2018-May-11 03:30S 05°23' E 011°26'0 0.0
2018-May-11 03:00S 05°23' E 011°26'0 0.1
2018-May-11 02:27S 05°23' E 011°26'0 0.0
2018-May-11 02:00S 05°23' E 011°26'0 0.0
2018-May-11 01:28S 05°23' E 011°26'0 0.1
2018-May-11 01:00S 05°23' E 011°27'0 0.1
2018-May-11 00:30S 05°23' E 011°26'0 0.0
2018-May-11 00:00S 05°23' E 011°26'0 0.0
2018-May-10 23:30S 05°23' E 011°26'0 0.0
2018-May-10 23:00S 05°23' E 011°26'0 0.0
2018-May-10 22:29S 05°23' E 011°26'0 0.0
2018-May-10 22:00S 05°23' E 011°27'0 0.0
2018-May-10 21:30S 05°23' E 011°27'0 0.0
2018-May-10 21:00S 05°23' E 011°27'0 0.0
2018-May-10 20:30S 05°23' E 011°27'0 0.0
2018-May-10 19:58S 05°23' E 011°27'0 0.0
2018-May-10 19:30S 05°23' E 011°27'0 0.0
2018-May-10 18:58S 05°23' E 011°27'714.1
2018-May-10 18:30S 05°18' E 011°23'715.1
2018-May-10 18:00S 05°16' E 011°31'1 2.6
2018-May-10 17:28S 05°16' E 011°29'612.7
2018-May-10 16:59S 05°17' E 011°23'711.5
2018-May-10 16:24S 05°23' E 011°27'513.0
2018-May-10 16:00S 05°18' E 011°24'510.3
2018-May-10 15:30S 05°23' E 011°27'1 1.0
2018-May-10 14:59S 05°23' E 011°26'0 0.0
2018-May-10 14:29S 05°23' E 011°26'0 0.0
2018-May-10 13:59S 05°23' E 011°26'0 1.0
2018-May-10 13:30S 05°23' E 011°27'612.8
2018-May-10 12:59S 05°17' E 011°23'3 5.2
2018-May-10 12:30S 05°19' E 011°25'4 6.9
2018-May-10 11:53S 05°23' E 011°27'0 0.0
2018-May-10 11:30S 05°23' E 011°26'0 0.0
2018-May-10 11:00S 05°23' E 011°26'1 1.1
2018-May-10 10:29S 05°23' E 011°27'2 3.6
2018-May-10 10:00S 05°21' E 011°26'5 9.9
2018-May-10 09:30S 05°17' E 011°24'1020.0
2018-May-10 09:00S 05°16' E 011°34'510.4
2018-May-10 08:30S 05°20' E 011°30'510.0
2018-May-10 08:00S 05°20' E 011°25'4 7.6
2018-May-10 07:30S 05°17' E 011°24'1019.3
2018-May-10 07:00S 05°16' E 011°34'1019.3
2018-May-10 06:30S 05°23' E 011°27'713.6
2018-May-10 06:00S 05°17' E 011°23'712.9
2018-May-10 05:29S 05°23' E 011°27'713.8
2018-May-10 05:00S 05°17' E 011°23'0 0.8
2018-May-10 04:30S 05°17' E 011°23'714.1
2018-May-10 04:00S 05°23' E 011°26'0 0.0
2018-May-10 03:30S 05°23' E 011°26'0 0.0
2018-May-10 03:00S 05°23' E 011°26'0 0.0
2018-May-10 02:30S 05°23' E 011°26'0 0.0
2018-May-10 02:00S 05°23' E 011°26'0 0.0
2018-May-10 01:29S 05°23' E 011°26'0 0.0
2018-May-10 01:00S 05°23' E 011°26'0 0.0
2018-May-10 00:28S 05°23' E 011°26'0 0.0
2018-May-10 00:00S 05°23' E 011°26'0 0.1
2018-May-09 23:30S 05°23' E 011°26'0 0.1
2018-May-09 23:00S 05°23' E 011°27'0 0.1
2018-May-09 22:30S 05°23' E 011°26'0 0.0
2018-May-09 22:00S 05°23' E 011°26'0 0.0
2018-May-09 21:28S 05°23' E 011°26'0 0.0
2018-May-09 21:00S 05°23' E 011°26'0 0.1
2018-May-09 20:29S 05°23' E 011°26'0 0.0
2018-May-09 20:00S 05°23' E 011°26'0 0.1
2018-May-09 19:30S 05°23' E 011°27'0 0.1
2018-May-09 19:00S 05°23' E 011°26'5 9.0
2018-May-09 18:29S 05°19' E 011°24'510.9
2018-May-09 18:00S 05°16' E 011°28'0 0.4
2018-May-09 17:19S 05°17' E 011°28'516.4
2018-May-09 17:00S 05°17' E 011°23'712.9
2018-May-09 16:29S 05°23' E 011°27'4 8.0
2018-May-09 16:00S 05°19' E 011°28'3 0.1
2018-May-08 13:28S 05°19' E 011°31'610.4
2018-May-08 12:53S 05°23' E 011°27'513.0
2018-May-08 12:30S 05°18' E 011°24'4 7.1
2018-May-08 12:00S 05°16' E 011°22'5 5.6
2018-May-08 11:01S 05°20' E 011°25'4 0.7
2018-May-08 05:30S 05°17' E 011°23'0 0.6
2018-May-08 04:58S 05°17' E 011°23'2 4.5
2018-May-08 04:29S 05°19' E 011°24'510.5
2018-May-08 04:00S 05°23' E 011°26'0 0.4
2018-May-08 03:29S 05°23' E 011°26'0 0.0
2018-May-08 03:00S 05°23' E 011°26'0 0.0
2018-May-08 02:30S 05°23' E 011°26'0 0.0
2018-May-08 02:00S 05°23' E 011°26'0 0.0
2018-May-08 01:30S 05°23' E 011°26'0 0.0
2018-May-08 01:00S 05°23' E 011°26'0 0.0
2018-May-08 00:30S 05°23' E 011°26'0 0.0
2018-May-08 00:00S 05°23' E 011°26'0 0.0
2018-May-07 23:30S 05°23' E 011°26'0 0.0
2018-May-07 23:00S 05°23' E 011°26'0 0.0
2018-May-07 22:30S 05°23' E 011°26'0 0.0
2018-May-07 21:59S 05°23' E 011°27'0 0.0
2018-May-07 21:28S 05°23' E 011°27'0 0.1
2018-May-07 21:00S 05°23' E 011°27'0 0.0
2018-May-07 20:17S 05°23' E 011°27'0 0.0
2018-May-07 19:50S 05°23' E 011°27'0 0.0
2018-May-07 19:28S 05°23' E 011°27'0 0.0
2018-May-07 19:00S 05°23' E 011°27'0 0.0
2018-May-07 18:30S 05°23' E 011°26'0 0.0
2018-May-07 17:59S 05°23' E 011°26'3 6.2
2018-May-07 17:30S 05°21' E 011°25'2 4.4
2018-May-07 16:58S 05°19' E 011°24'510.1
2018-May-07 16:29S 05°23' E 011°27'0 0.2
2018-May-07 16:00S 05°23' E 011°27'0 0.5
2018-May-07 15:29S 05°23' E 011°26'1 0.3
2018-May-07 12:43S 05°23' E 011°26'0 0.0
2018-May-07 12:30S 05°23' E 011°26'0 0.0
2018-May-07 11:48S 05°23' E 011°26'0 0.0
2018-May-07 11:30S 05°23' E 011°26'1 0.8
2018-May-07 10:48S 05°23' E 011°27'515.5
2018-May-07 10:29S 05°19' E 011°24'510.9
2018-May-07 09:59S 05°23' E 011°26'3 6.2
2018-May-07 09:30S 05°21' E 011°28'714.4
2018-May-07 09:00S 05°16' E 011°34'916.8
2018-May-07 08:29S 05°22' E 011°27'4 7.6
2018-May-07 07:58S 05°20' E 011°24'3 6.5
2018-May-07 07:30S 05°23' E 011°24'2 3.2
2018-May-07 06:48S 05°23' E 011°26'0 0.0
2018-May-07 06:28S 05°23' E 011°26'0 0.0
2018-May-07 05:53S 05°23' E 011°26'0 1.3
2018-May-07 05:30S 05°23' E 011°27'611.1
2018-May-07 05:00S 05°18' E 011°24'0 0.8
2018-May-07 04:29S 05°19' E 011°24'510.1
2018-May-07 04:00S 05°23' E 011°26'1 1.6
2018-May-07 03:30S 05°23' E 011°26'0 0.0
2018-May-07 01:21S 05°23' E 011°26'0 0.0
2018-May-07 01:00S 05°23' E 011°26'0 0.0
2018-May-07 00:30S 05°23' E 011°26'0 0.0
2018-May-06 22:54S 05°23' E 011°26'0 0.0
2018-May-06 22:24S 05°23' E 011°26'0 0.0
2018-May-06 22:00S 05°23' E 011°26'0 0.0
2018-May-06 21:30S 05°23' E 011°26'0 0.0
2018-May-06 20:56S 05°23' E 011°26'0 0.0
2018-May-06 20:30S 05°23' E 011°26'0 0.0
2018-May-06 19:59S 05°23' E 011°26'0 0.0
2018-May-06 19:30S 05°23' E 011°26'0 0.0
2018-May-06 18:45S 05°23' E 011°26'0 0.0
2018-May-06 18:30S 05°23' E 011°26'0 0.0
2018-May-06 17:59S 05°23' E 011°26'1 2.4
2018-May-06 17:29S 05°22' E 011°26'611.9
2018-May-06 17:00S 05°17' E 011°23'713.8
2018-May-06 16:30S 05°23' E 011°27'1 2.4
2018-May-06 15:59S 05°22' E 011°26'0 0.0
2018-May-06 15:30S 05°22' E 011°26'0 0.0
2018-May-06 15:00S 05°22' E 011°26'0 0.0
2018-May-06 14:30S 05°22' E 011°26'0 0.0
2018-May-06 13:58S 05°22' E 011°26'0 0.0
2018-May-06 13:30S 05°22' E 011°26'0 0.0
2018-May-06 13:00S 05°22' E 011°26'0 0.0
2018-May-06 12:29S 05°22' E 011°26'0 0.0
2018-May-06 11:59S 05°22' E 011°26'0 0.0
2018-May-06 11:30S 05°22' E 011°26'510.4
2018-May-06 10:59S 05°17' E 011°23'612.8
2018-May-06 10:30S 05°23' E 011°26'0 0.6
2018-May-06 09:58S 05°23' E 011°27'714.2
2018-May-06 09:30S 05°17' E 011°23'612.4
2018-May-06 09:00S 05°20' E 011°28'713.8
2018-May-06 08:30S 05°16' E 011°34'918.9
2018-May-06 08:00S 05°23' E 011°27'1 1.1
2018-May-06 07:30S 05°23' E 011°26'0 0.0
2018-May-06 06:57S 05°23' E 011°26'0 0.0
2018-May-06 06:30S 05°23' E 011°26'0 0.0
2018-May-06 06:00S 05°23' E 011°26'0 1.0
2018-May-06 05:30S 05°23' E 011°27'712.5
2018-May-06 04:58S 05°17' E 011°23'3 6.5
2018-May-06 04:30S 05°20' E 011°24'4 8.1
2018-May-06 04:00S 05°23' E 011°26'0 0.0
2018-May-06 03:30S 05°23' E 011°26'0 0.1
2018-May-06 03:00S 05°23' E 011°26'0 0.1
2018-May-06 02:30S 05°23' E 011°26'0 0.1
2018-May-06 02:00S 05°23' E 011°26'0 0.0
2018-May-06 01:30S 05°23' E 011°26'0 0.0
2018-May-06 01:00S 05°23' E 011°26'0 0.0
2018-May-06 00:30S 05°23' E 011°26'0 0.0
2018-May-06 00:00S 05°23' E 011°26'0 0.0
2018-May-05 23:29S 05°23' E 011°26'0 0.1
2018-May-05 23:00S 05°23' E 011°26'0 0.0
2018-May-05 22:28S 05°23' E 011°26'0 0.0
2018-May-05 21:59S 05°23' E 011°26'0 0.0
2018-May-05 21:30S 05°23' E 011°26'0 0.0
2018-May-05 20:59S 05°23' E 011°26'0 0.0
2018-May-05 20:26S 05°23' E 011°26'0 0.0
2018-May-05 19:53S 05°23' E 011°26'0 0.0
2018-May-05 19:30S 05°23' E 011°26'0 0.0
2018-May-05 18:58S 05°23' E 011°26'0 0.0
2018-May-05 18:28S 05°23' E 011°26'0 0.0
2018-May-05 18:00S 05°23' E 011°26'1 2.9
2018-May-05 17:30S 05°22' E 011°26'510.1
2018-May-05 17:00S 05°18' E 011°23'  
Track history (hours):
 
Tides and Currents Weather Stations Pressure Air Temp Water Temp Dewpoint Dewpoint Depression Visibility Wind Speed Wind Dir Waves Ship Positions

Mamolino2051

Last reported at 2018-May-15 14:19 UTC. Time now 2018-Jun-22 15:05 UTC.
Position S 05°23' E 011°27'.
Warning: this ship's position is 38 days out of date.

Length 20 m; draft 1 m.

Type: Ship. MMSI: 229180000.

Date/timePositionNaut miles runAvg speedWind from/ knotsBaromVisibWave heightAir tempDewpointWater temp
2018-May-15 14:19S 05°23' E 011°27'0 0.3
2018-May-15 14:00S 05°23' E 011°27'0 0.2
2018-May-15 13:30S 05°23' E 011°27'1 2.9
2018-May-15 12:59S 05°22' E 011°28'2 3.5
2018-May-15 12:22S 05°22' E 011°30'0 0.0
2018-May-15 11:46S 05°22' E 011°30'0 0.0
2018-May-15 11:30S 05°22' E 011°30'4 6.8
2018-May-15 10:59S 05°23' E 011°27'714.4
2018-May-15 10:30S 05°18' E 011°32'3 5.7
2018-May-15 10:00S 05°20' E 011°30'4 8.1
2018-May-15 09:28S 05°23' E 011°27'0 0.1
2018-May-15 09:00S 05°23' E 011°27'4 5.0
2018-May-15 08:16S 05°22' E 011°30'0 0.0
2018-May-15 08:00S 05°22' E 011°30'0 0.0
2018-May-15 07:18S 05°22' E 011°30'1 2.3
2018-May-15 06:55S 05°21' E 011°30'613.5
2018-May-15 06:30S 05°17' E 011°34'1019.5
2018-May-15 05:59S 05°17' E 011°24'612.3
2018-May-15 05:29S 05°23' E 011°27'713.4
2018-May-15 04:59S 05°17' E 011°23'4 8.4
2018-May-15 04:30S 05°19' E 011°26'5 1.0
2018-May-15 00:07S 05°22' E 011°30'0 0.0
2018-May-14 23:59S 05°22' E 011°30'0 0.0
2018-May-14 23:30S 05°22' E 011°30'0 0.0
2018-May-14 21:48S 05°22' E 011°30'0 0.0
2018-May-14 21:28S 05°22' E 011°30'0 0.0
2018-May-14 20:13S 05°22' E 011°30'0 0.0
2018-May-14 20:00S 05°22' E 011°30'0 0.0
2018-May-14 19:10S 05°22' E 011°30'1 4.8
2018-May-14 18:59S 05°21' E 011°29'816.3
2018-May-14 18:30S 05°17' E 011°23'918.5
2018-May-14 18:00S 05°17' E 011°32'4 8.0
2018-May-14 17:29S 05°17' E 011°28'510.7
2018-May-14 17:00S 05°17' E 011°23'713.0
2018-May-14 16:29S 05°23' E 011°27'0 0.2
2018-May-14 15:59S 05°23' E 011°27'0 0.2
2018-May-14 15:30S 05°23' E 011°27'0 0.5
2018-May-14 14:59S 05°23' E 011°27'0 0.6
2018-May-14 14:29S 05°23' E 011°27'0 0.1
2018-May-14 13:58S 05°23' E 011°27'5 9.3
2018-May-14 13:29S 05°21' E 011°31'3 5.7
2018-May-14 12:58S 05°18' E 011°32'713.9
2018-May-14 12:28S 05°23' E 011°27'3 5.9
2018-May-14 11:58S 05°23' E 011°24'1 2.0
2018-May-14 11:30S 05°23' E 011°25'1 2.0
2018-May-14 11:00S 05°23' E 011°26'1 1.9
2018-May-14 10:30S 05°23' E 011°26'2 3.0
2018-May-14 09:59S 05°23' E 011°25'1 1.9
2018-May-14 09:30S 05°23' E 011°26'1 1.4
2018-May-14 09:00S 05°23' E 011°27'713.1
2018-May-14 08:29S 05°17' E 011°23'1020.4
2018-May-14 07:59S 05°17' E 011°33'0 0.6
2018-May-14 07:30S 05°17' E 011°33'1 1.3
2018-May-14 06:59S 05°16' E 011°34'917.9
2018-May-14 06:30S 05°22' E 011°27'713.2
2018-May-14 06:00S 05°17' E 011°23'712.9
2018-May-14 05:29S 05°23' E 011°27'613.4
2018-May-14 05:00S 05°17' E 011°23'0 0.6
2018-May-14 04:30S 05°17' E 011°23'9 6.2
2018-May-14 03:07S 05°22' E 011°30'0 0.0
2018-May-14 02:51S 05°22' E 011°30'0 0.0
2018-May-14 02:30S 05°22' E 011°30'0 0.0
2018-May-14 02:00S 05°22' E 011°30'0 0.0
2018-May-14 01:30S 05°22' E 011°30'0 0.0
2018-May-14 01:00S 05°22' E 011°30'0 0.0
2018-May-14 00:30S 05°22' E 011°30'0 0.0
2018-May-13 23:59S 05°22' E 011°30'0 0.0
2018-May-13 23:30S 05°22' E 011°30'0 0.0
2018-May-13 23:00S 05°22' E 011°30'0 0.0
2018-May-13 22:30S 05°22' E 011°30'0 0.0
2018-May-13 21:59S 05°22' E 011°30'0 0.0
2018-May-13 21:30S 05°22' E 011°30'0 0.0
2018-May-13 20:59S 05°22' E 011°30'0 0.0
2018-May-13 20:29S 05°22' E 011°30'0 0.0
2018-May-13 19:58S 05°22' E 011°30'0 0.0
2018-May-13 19:29S 05°22' E 011°30'4 7.4
2018-May-13 19:00S 05°22' E 011°27'5 9.4
2018-May-13 18:28S 05°17' E 011°26'814.2
2018-May-13 17:53S 05°17' E 011°34'821.2
2018-May-13 17:30S 05°17' E 011°26'2 4.9
2018-May-13 17:00S 05°18' E 011°23'6 9.6
2018-May-13 16:22S 05°23' E 011°27'0 0.5
2018-May-13 16:00S 05°23' E 011°26'0 0.4
2018-May-13 15:30S 05°23' E 011°27'4 7.7
2018-May-13 15:00S 05°22' E 011°30'0 0.0
2018-May-13 14:30S 05°22' E 011°30'0 0.0
2018-May-13 13:58S 05°22' E 011°30'0 0.0
2018-May-13 13:30S 05°22' E 011°30'0 0.0
2018-May-13 13:00S 05°22' E 011°30'0 0.0
2018-May-13 12:28S 05°22' E 011°30'0 0.0
2018-May-13 11:58S 05°22' E 011°30'4 8.2
2018-May-13 11:29S 05°23' E 011°27'4 8.0
2018-May-13 11:00S 05°19' E 011°25'3 5.4
2018-May-13 10:30S 05°17' E 011°23'713.4
2018-May-13 09:58S 05°17' E 011°30'4 8.2
2018-May-13 09:30S 05°16' E 011°34'5 9.2
2018-May-13 09:00S 05°17' E 011°29'613.0
2018-May-13 08:30S 05°17' E 011°23'0 0.5
2018-May-13 08:00S 05°17' E 011°23'1 1.2
2018-May-13 07:29S 05°17' E 011°23'0 0.5
2018-May-13 07:00S 05°17' E 011°23'1 1.9
2018-May-13 06:30S 05°17' E 011°23'1 1.6
2018-May-13 06:00S 05°17' E 011°23'0 0.7
2018-May-13 05:30S 05°17' E 011°23'0 0.5
2018-May-13 04:59S 05°17' E 011°23'4 6.7
2018-May-13 04:28S 05°19' E 011°26'511.1
2018-May-13 04:00S 05°22' E 011°30'0 0.0
2018-May-13 03:30S 05°22' E 011°30'0 0.0
2018-May-13 02:59S 05°22' E 011°30'0 0.0
2018-May-13 02:29S 05°22' E 011°30'0 0.0
2018-May-13 02:00S 05°22' E 011°30'0 0.0
2018-May-13 01:29S 05°22' E 011°30'0 0.1
2018-May-13 01:00S 05°22' E 011°30'0 0.0
2018-May-13 00:28S 05°22' E 011°30'0 0.0
2018-May-13 00:00S 05°22' E 011°30'0 0.0
2018-May-12 23:30S 05°22' E 011°30'0 0.0
2018-May-12 23:00S 05°22' E 011°30'0 0.0
2018-May-12 22:30S 05°22' E 011°30'0 0.0
2018-May-12 22:00S 05°22' E 011°30'0 0.0
2018-May-12 21:30S 05°22' E 011°30'0 0.0
2018-May-12 20:59S 05°22' E 011°30'0 0.0
2018-May-12 20:30S 05°22' E 011°30'0 0.0
2018-May-12 20:00S 05°22' E 011°30'0 0.0
2018-May-12 19:29S 05°22' E 011°30'1 1.3
2018-May-12 19:00S 05°21' E 011°30'815.4
2018-May-12 18:29S 05°17' E 011°23'919.8
2018-May-12 18:01S 05°17' E 011°33'5 9.0
2018-May-12 17:30S 05°16' E 011°28'5 9.8
2018-May-12 16:59S 05°17' E 011°23'713.7
2018-May-12 16:30S 05°23' E 011°27'4 8.1
2018-May-12 16:00S 05°19' E 011°24'4 7.6
2018-May-12 15:29S 05°23' E 011°27'0 0.1
2018-May-12 14:59S 05°23' E 011°27'1 1.4
2018-May-12 14:30S 05°22' E 011°26'1 1.4
2018-May-12 14:00S 05°22' E 011°27'4 6.9
2018-May-12 13:29S 05°22' E 011°30'0 0.0
2018-May-12 13:00S 05°22' E 011°30'0 0.0
2018-May-12 12:30S 05°22' E 011°30'0 0.0
2018-May-12 12:00S 05°22' E 011°30'0 0.0
2018-May-12 11:30S 05°22' E 011°30'0 0.0
2018-May-12 11:00S 05°22' E 011°30'0 0.0
2018-May-12 10:30S 05°22' E 011°30'0 0.0
2018-May-12 10:01S 05°22' E 011°30'4 7.6
2018-May-12 09:28S 05°22' E 011°26'1 1.1
2018-May-12 09:00S 05°23' E 011°26'0 0.2
2018-May-12 08:16S 05°23' E 011°26'0 1.6
2018-May-12 08:00S 05°22' E 011°26'0 0.9
2018-May-12 07:30S 05°23' E 011°26'4 7.9
2018-May-12 06:59S 05°20' E 011°30'5 9.8
2018-May-12 06:28S 05°17' E 011°33'920.2
2018-May-12 06:00S 05°17' E 011°24'612.2
2018-May-12 05:29S 05°23' E 011°27'713.2
2018-May-12 04:59S 05°17' E 011°23'2 4.4
2018-May-12 04:30S 05°18' E 011°25'612.5
2018-May-12 04:00S 05°22' E 011°30'0 0.0
2018-May-12 03:29S 05°22' E 011°30'0 0.0
2018-May-12 03:00S 05°22' E 011°30'0 0.0
2018-May-12 02:30S 05°22' E 011°30'0 0.0
2018-May-12 02:00S 05°22' E 011°30'0 0.0
2018-May-12 01:30S 05°22' E 011°30'0 0.0
2018-May-12 00:59S 05°22' E 011°30'0 0.0
2018-May-12 00:29S 05°22' E 011°30'0 0.0
2018-May-12 00:00S 05°22' E 011°30'0 0.0
2018-May-11 23:29S 05°22' E 011°30'0 0.0
2018-May-11 23:00S 05°22' E 011°30'0 0.0
2018-May-11 22:30S 05°22' E 011°30'0 0.0
2018-May-11 22:00S 05°22' E 011°30'0 0.0
2018-May-11 21:06S 05°22' E 011°30'0 0.0
2018-May-11 20:51S 05°22' E 011°30'0 0.0
2018-May-11 20:30S 05°22' E 011°30'0 0.0
2018-May-11 19:37S 05°22' E 011°30'0 0.1
2018-May-11 19:24S 05°22' E 011°30'4 9.4
2018-May-11 18:57S 05°23' E 011°27'716.0
2018-May-11 18:30S 05°17' E 011°23'917.1
2018-May-11 17:57S 05°16' E 011°33'2 4.1
2018-May-11 17:30S 05°16' E 011°31'815.5
2018-May-11 17:00S 05°17' E 011°23'713.3
2018-May-11 16:30S 05°23' E 011°27'4 7.4
2018-May-11 16:00S 05°20' E 011°24'4 7.6
2018-May-11 15:30S 05°23' E 011°27'0 0.2
2018-May-11 15:00S 05°23' E 011°27'0 0.2
2018-May-11 14:30S 05°23' E 011°27'0 0.0
2018-May-11 14:00S 05°23' E 011°27'1 1.0
2018-May-11 13:29S 05°22' E 011°27'918.0
2018-May-11 12:58S 05°16' E 011°34'3 6.9
2018-May-11 12:30S 05°18' E 011°31'714.3
2018-May-11 12:00S 05°21' E 011°25'1 2.1
2018-May-11 11:30S 05°22' E 011°25'1 1.2
2018-May-11 11:00S 05°21' E 011°25'1 1.8
2018-May-11 10:30S 05°22' E 011°26'1 1.5
2018-May-11 10:00S 05°23' E 011°26'2 2.8
2018-May-11 09:28S 05°22' E 011°25'0 0.5
2018-May-11 08:58S 05°22' E 011°25'1 1.4
2018-May-11 08:28S 05°22' E 011°26'1 1.4
2018-May-11 08:00S 05°23' E 011°26'0 0.5
2018-May-11 07:30S 05°23' E 011°26'813.7
2018-May-11 06:56S 05°17' E 011°32'510.5
2018-May-11 06:28S 05°20' E 011°29'511.8
2018-May-11 06:00S 05°18' E 011°24'6 9.5
2018-May-11 05:25S 05°23' E 011°27'715.8
2018-May-11 05:00S 05°17' E 011°23'0 1.0
2018-May-11 04:30S 05°18' E 011°23'713.1
2018-May-11 04:00S 05°23' E 011°26'0 0.0
2018-May-11 03:30S 05°23' E 011°26'0 0.0
2018-May-11 03:00S 05°23' E 011°26'0 0.1
2018-May-11 02:27S 05°23' E 011°26'0 0.0
2018-May-11 02:00S 05°23' E 011°26'0 0.0
2018-May-11 01:28S 05°23' E 011°26'0 0.1
2018-May-11 01:00S 05°23' E 011°27'0 0.1
2018-May-11 00:30S 05°23' E 011°26'0 0.0
2018-May-11 00:00S 05°23' E 011°26'0 0.0
2018-May-10 23:30S 05°23' E 011°26'0 0.0
2018-May-10 23:00S 05°23' E 011°26'0 0.0
2018-May-10 22:29S 05°23' E 011°26'0 0.0
2018-May-10 22:00S 05°23' E 011°27'0 0.0
2018-May-10 21:30S 05°23' E 011°27'0 0.0
2018-May-10 21:00S 05°23' E 011°27'0 0.0
2018-May-10 20:30S 05°23' E 011°27'0 0.0
2018-May-10 19:58S 05°23' E 011°27'0 0.0
2018-May-10 19:30S 05°23' E 011°27'0 0.0
2018-May-10 18:58S 05°23' E 011°27'714.1
2018-May-10 18:30S 05°18' E 011°23'715.1
2018-May-10 18:00S 05°16' E 011°31'1 2.6
2018-May-10 17:28S 05°16' E 011°29'612.7
2018-May-10 16:59S 05°17' E 011°23'711.5
2018-May-10 16:24S 05°23' E 011°27'513.0
2018-May-10 16:00S 05°18' E 011°24'510.3
2018-May-10 15:30S 05°23' E 011°27'1 1.0
2018-May-10 14:59S 05°23' E 011°26'0 0.0
2018-May-10 14:29S 05°23' E 011°26'0 0.0
2018-May-10 13:59S 05°23' E 011°26'0 1.0
2018-May-10 13:30S 05°23' E 011°27'612.8
2018-May-10 12:59S 05°17' E 011°23'3 5.2
2018-May-10 12:30S 05°19' E 011°25'4 6.9
2018-May-10 11:53S 05°23' E 011°27'0 0.0
2018-May-10 11:30S 05°23' E 011°26'0 0.0
2018-May-10 11:00S 05°23' E 011°26'1 1.1
2018-May-10 10:29S 05°23' E 011°27'2 3.6
2018-May-10 10:00S 05°21' E 011°26'5 9.9
2018-May-10 09:30S 05°17' E 011°24'1020.0
2018-May-10 09:00S 05°16' E 011°34'510.4
2018-May-10 08:30S 05°20' E 011°30'510.0
2018-May-10 08:00S 05°20' E 011°25'4 7.6
2018-May-10 07:30S 05°17' E 011°24'1019.3
2018-May-10 07:00S 05°16' E 011°34'1019.3
2018-May-10 06:30S 05°23' E 011°27'713.6
2018-May-10 06:00S 05°17' E 011°23'712.9
2018-May-10 05:29S 05°23' E 011°27'713.8
2018-May-10 05:00S 05°17' E 011°23'0 0.8
2018-May-10 04:30S 05°17' E 011°23'714.1
2018-May-10 04:00S 05°23' E 011°26'0 0.0
2018-May-10 03:30S 05°23' E 011°26'0 0.0
2018-May-10 03:00S 05°23' E 011°26'0 0.0
2018-May-10 02:30S 05°23' E 011°26'0 0.0
2018-May-10 02:00S 05°23' E 011°26'0 0.0
2018-May-10 01:29S 05°23' E 011°26'0 0.0
2018-May-10 01:00S 05°23' E 011°26'0 0.0
2018-May-10 00:28S 05°23' E 011°26'0 0.0
2018-May-10 00:00S 05°23' E 011°26'0 0.1
2018-May-09 23:30S 05°23' E 011°26'0 0.1
2018-May-09 23:00S 05°23' E 011°27'0 0.1
2018-May-09 22:30S 05°23' E 011°26'0 0.0
2018-May-09 22:00S 05°23' E 011°26'0 0.0
2018-May-09 21:28S 05°23' E 011°26'0 0.0
2018-May-09 21:00S 05°23' E 011°26'0 0.1
2018-May-09 20:29S 05°23' E 011°26'0 0.0
2018-May-09 20:00S 05°23' E 011°26'0 0.1
2018-May-09 19:30S 05°23' E 011°27'0 0.1
2018-May-09 19:00S 05°23' E 011°26'5 9.0
2018-May-09 18:29S 05°19' E 011°24'510.9
2018-May-09 18:00S 05°16' E 011°28'0 0.4
2018-May-09 17:19S 05°17' E 011°28'516.4
2018-May-09 17:00S 05°17' E 011°23'712.9
2018-May-09 16:29S 05°23' E 011°27'4 8.0
2018-May-09 16:00S 05°19' E 011°28'3 0.1
2018-May-08 13:28S 05°19' E 011°31'610.4
2018-May-08 12:53S 05°23' E 011°27'513.0
2018-May-08 12:30S 05°18' E 011°24'4 7.1
2018-May-08 12:00S 05°16' E 011°22'5 5.6
2018-May-08 11:01S 05°20' E 011°25'4 0.7
2018-May-08 05:30S 05°17' E 011°23'0 0.6
2018-May-08 04:58S 05°17' E 011°23'2 4.5
2018-May-08 04:29S 05°19' E 011°24'510.5
2018-May-08 04:00S 05°23' E 011°26'0 0.4
2018-May-08 03:29S 05°23' E 011°26'0 0.0
2018-May-08 03:00S 05°23' E 011°26'0 0.0
2018-May-08 02:30S 05°23' E 011°26'0 0.0
2018-May-08 02:00S 05°23' E 011°26'0 0.0
2018-May-08 01:30S 05°23' E 011°26'0 0.0
2018-May-08 01:00S 05°23' E 011°26'0 0.0
2018-May-08 00:30S 05°23' E 011°26'0 0.0
2018-May-08 00:00S 05°23' E 011°26'0 0.0
2018-May-07 23:30S 05°23' E 011°26'0 0.0
2018-May-07 23:00S 05°23' E 011°26'0 0.0
2018-May-07 22:30S 05°23' E 011°26'0 0.0
2018-May-07 21:59S 05°23' E 011°27'0 0.0
2018-May-07 21:28S 05°23' E 011°27'0 0.1
2018-May-07 21:00S 05°23' E 011°27'0 0.0
2018-May-07 20:17S 05°23' E 011°27'0 0.0
2018-May-07 19:50S 05°23' E 011°27'0 0.0
2018-May-07 19:28S 05°23' E 011°27'0 0.0
2018-May-07 19:00S 05°23' E 011°27'0 0.0
2018-May-07 18:30S 05°23' E 011°26'0 0.0
2018-May-07 17:59S 05°23' E 011°26'3 6.2
2018-May-07 17:30S 05°21' E 011°25'2 4.4
2018-May-07 16:58S 05°19' E 011°24'510.1
2018-May-07 16:29S 05°23' E 011°27'0 0.2
2018-May-07 16:00S 05°23' E 011°27'0 0.5
2018-May-07 15:29S 05°23' E 011°26'1 0.3
2018-May-07 12:43S 05°23' E 011°26'0 0.0
2018-May-07 12:30S 05°23' E 011°26'0 0.0
2018-May-07 11:48S 05°23' E 011°26'0 0.0
2018-May-07 11:30S 05°23' E 011°26'1 0.8
2018-May-07 10:48S 05°23' E 011°27'515.5
2018-May-07 10:29S 05°19' E 011°24'510.9
2018-May-07 09:59S 05°23' E 011°26'3 6.2
2018-May-07 09:30S 05°21' E 011°28'714.4
2018-May-07 09:00S 05°16' E 011°34'916.8
2018-May-07 08:29S 05°22' E 011°27'4 7.6
2018-May-07 07:58S 05°20' E 011°24'3 6.5
2018-May-07 07:30S 05°23' E 011°24'2 3.2
2018-May-07 06:48S 05°23' E 011°26'0 0.0
2018-May-07 06:28S 05°23' E 011°26'0 0.0
2018-May-07 05:53S 05°23' E 011°26'0 1.3
2018-May-07 05:30S 05°23' E 011°27'611.1
2018-May-07 05:00S 05°18' E 011°24'0 0.8
2018-May-07 04:29S 05°19' E 011°24'510.1
2018-May-07 04:00S 05°23' E 011°26'1 1.6
2018-May-07 03:30S 05°23' E 011°26'0 0.0
2018-May-07 01:21S 05°23' E 011°26'0 0.0
2018-May-07 01:00S 05°23' E 011°26'0 0.0
2018-May-07 00:30S 05°23' E 011°26'0 0.0
2018-May-06 22:54S 05°23' E 011°26'0 0.0
2018-May-06 22:24S 05°23' E 011°26'0 0.0
2018-May-06 22:00S 05°23' E 011°26'0 0.0
2018-May-06 21:30S 05°23' E 011°26'0 0.0
2018-May-06 20:56S 05°23' E 011°26'0 0.0
2018-May-06 20:30S 05°23' E 011°26'0 0.0
2018-May-06 19:59S 05°23' E 011°26'0 0.0
2018-May-06 19:30S 05°23' E 011°26'0 0.0
2018-May-06 18:45S 05°23' E 011°26'0 0.0
2018-May-06 18:30S 05°23' E 011°26'0 0.0
2018-May-06 17:59S 05°23' E 011°26'1 2.4
2018-May-06 17:29S 05°22' E 011°26'611.9
2018-May-06 17:00S 05°17' E 011°23'713.8
2018-May-06 16:30S 05°23' E 011°27'1 2.4
2018-May-06 15:59S 05°22' E 011°26'0 0.0
2018-May-06 15:30S 05°22' E 011°26'0 0.0
2018-May-06 15:00S 05°22' E 011°26'0 0.0
2018-May-06 14:30S 05°22' E 011°26'0 0.0
2018-May-06 13:58S 05°22' E 011°26'0 0.0
2018-May-06 13:30S 05°22' E 011°26'0 0.0
2018-May-06 13:00S 05°22' E 011°26'0 0.0
2018-May-06 12:29S 05°22' E 011°26'0 0.0
2018-May-06 11:59S 05°22' E 011°26'0 0.0
2018-May-06 11:30S 05°22' E 011°26'510.4
2018-May-06 10:59S 05°17' E 011°23'612.8
2018-May-06 10:30S 05°23' E 011°26'0 0.6
2018-May-06 09:58S 05°23' E 011°27'714.2
2018-May-06 09:30S 05°17' E 011°23'612.4
2018-May-06 09:00S 05°20' E 011°28'713.8
2018-May-06 08:30S 05°16' E 011°34'918.9
2018-May-06 08:00S 05°23' E 011°27'1 1.1
2018-May-06 07:30S 05°23' E 011°26'0 0.0
2018-May-06 06:57S 05°23' E 011°26'0 0.0
2018-May-06 06:30S 05°23' E 011°26'0 0.0
2018-May-06 06:00S 05°23' E 011°26'0 1.0
2018-May-06 05:30S 05°23' E 011°27'712.5
2018-May-06 04:58S 05°17' E 011°23'3 6.5
2018-May-06 04:30S 05°20' E 011°24'4 8.1
2018-May-06 04:00S 05°23' E 011°26'0 0.0
2018-May-06 03:30S 05°23' E 011°26'0 0.1
2018-May-06 03:00S 05°23' E 011°26'0 0.1
2018-May-06 02:30S 05°23' E 011°26'0 0.1
2018-May-06 02:00S 05°23' E 011°26'0 0.0
2018-May-06 01:30S 05°23' E 011°26'0 0.0
2018-May-06 01:00S 05°23' E 011°26'0 0.0
2018-May-06 00:30S 05°23' E 011°26'0 0.0
2018-May-06 00:00S 05°23' E 011°26'0 0.0
2018-May-05 23:29S 05°23' E 011°26'0 0.1
2018-May-05 23:00S 05°23' E 011°26'0 0.0
2018-May-05 22:28S 05°23' E 011°26'0 0.0
2018-May-05 21:59S 05°23' E 011°26'0 0.0
2018-May-05 21:30S 05°23' E 011°26'0 0.0
2018-May-05 20:59S 05°23' E 011°26'0 0.0
2018-May-05 20:26S 05°23' E 011°26'0 0.0
2018-May-05 19:53S 05°23' E 011°26'0 0.0
2018-May-05 19:30S 05°23' E 011°26'0 0.0
2018-May-05 18:58S 05°23' E 011°26'0 0.0
2018-May-05 18:28S 05°23' E 011°26'0 0.0
2018-May-05 18:00S 05°23' E 011°26'1 2.9
2018-May-05 17:30S 05°22' E 011°26'510.1
2018-May-05 17:00S 05°18' E 011°23'  

Dump ship's entire track history